Armiesburg, Indiana
Current Conditions -  °F | °C
As of 11:15 PM on Thursday 18 Dec 2014 (Local Time) from KPRG Reporting Station
Overcast Overcast  
Wind Chill: 29°   Ceiling: 1500
Heat Index: 29°   Visibility: 7mi
Dew Point: 25°   Wind: 3mph
Humidity: 86%   Direction: 340°NNW
Pressure: 30.29"   Gusts: NA
Location:  39.8207°N, 87.3335°W
Report Text: KPRG 190415Z AUTO 34003KT 7SM OVC015 M02/M04 A3029 RMK AO2 T10161037
Loading
Personal Weather Stations






























Interactive Weather Map New forecast layout! Learn more

10-Day Weather Forecast

Advertisements
Track Severe Weather on mobile